Kalamunda, Australia
Current Conditions -  °F | °C
As of 9:00 AM on Sunday 23 Nov 2014 (Local Time) from YPPH Reporting Station
Broken Clouds Broken Clouds  
Wind Chill: 66°   Ceiling: 4600
Heat Index: 66°   Visibility: 6mi
Dew Point: 52°   Wind: 18mph
Humidity: 60%   Direction: 200°SSW
Pressure: 30.03"   Gusts: NA
Location:  31.97°S, 116.06°E
Report Text: YPPH 230100Z 20016KT 9999 FEW032 BKN046 19/11 Q1017 NOSIG
Loading
Personal Weather Stations






























Interactive Weather Map New forecast layout! Learn more

10-Day Weather Forecast

Advertisements
Track Severe Weather on mobile